sensor_id;sensor_type;location;lat;lon;timestamp;pressure;altitude;pressure_sealevel;temperature;humidity
73267;BME280;61495;53.400;7.608;2023-10-09T00:00:33;101915.66;;;12.59;100.00
73267;BME280;61495;53.400;7.608;2023-10-09T00:03:06;101913.16;;;12.57;100.00
73267;BME280;61495;53.400;7.608;2023-10-09T00:05:32;101923.53;;;12.60;100.00
73267;BME280;61495;53.400;7.608;2023-10-09T00:08:09;101921.03;;;12.59;100.00
73267;BME280;61495;53.400;7.608;2023-10-09T00:10:36;101907.38;;;12.60;100.00
73267;BME280;61495;53.400;7.608;2023-10-09T00:13:10;101895.81;;;12.60;100.00
73267;BME280;61495;53.400;7.608;2023-10-09T00:15:35;101898.31;;;12.61;100.00
73267;BME280;61495;53.400;7.608;2023-10-09T00:18:01;101910.72;;;12.62;100.00
73267;BME280;61495;53.400;7.608;2023-10-09T00:20:26;101896.25;;;12.63;100.00
73267;BME280;61495;53.400;7.608;2023-10-09T00:23:03;101897.25;;;12.62;100.00
73267;BME280;61495;53.400;7.608;2023-10-09T00:25:37;101889.19;;;12.62;100.00
73267;BME280;61495;53.400;7.608;2023-10-09T00:28:10;101872.44;;;12.60;100.00
73267;BME280;61495;53.400;7.608;2023-10-09T00:30:41;101861.28;;;12.63;100.00
73267;BME280;61495;53.400;7.608;2023-10-09T00:33:06;101858.59;;;12.63;100.00
73267;BME280;61495;53.400;7.608;2023-10-09T00:35:37;101854.91;;;12.64;100.00
73267;BME280;61495;53.400;7.608;2023-10-09T00:38:09;101835.03;;;12.65;100.00
73267;BME280;61495;53.400;7.608;2023-10-09T00:40:47;101834.22;;;12.65;100.00
73267;BME280;61495;53.400;7.608;2023-10-09T00:43:21;101801.53;;;12.61;100.00
73267;BME280;61495;53.400;7.608;2023-10-09T00:45:53;101801.53;;;12.61;100.00
73267;BME280;61495;53.400;7.608;2023-10-09T00:48:19;101788.72;;;12.63;100.00
73267;BME280;61495;53.400;7.608;2023-10-09T00:50:57;101802.78;;;12.65;100.00
73267;BME280;61495;53.400;7.608;2023-10-09T00:53:25;101796.78;;;12.63;100.00
73267;BME280;61495;53.400;7.608;2023-10-09T00:56:01;101811.66;;;12.66;100.00
73267;BME280;61495;53.400;7.608;2023-10-09T00:58:47;101809.81;;;12.66;100.00
73267;BME280;61495;53.400;7.608;2023-10-09T01:01:14;101815.19;;;12.66;100.00
73267;BME280;61495;53.400;7.608;2023-10-09T01:03:42;101799.06;;;12.66;100.00
73267;BME280;61495;53.400;7.608;2023-10-09T01:06:10;101825.94;;;12.66;100.00
73267;BME280;61495;53.400;7.608;2023-10-09T01:08:38;101806.13;;;12.67;100.00
73267;BME280;61495;53.400;7.608;2023-10-09T01:13:37;101751.06;;;12.63;100.00
73267;BME280;61495;53.400;7.608;2023-10-09T01:16:19;101776.72;;;12.66;100.00
73267;BME280;61495;53.400;7.608;2023-10-09T01:18:52;101783.78;;;12.67;100.00
73267;BME280;61495;53.400;7.608;2023-10-09T01:21:19;101792.84;;;12.66;100.00
73267;BME280;61495;53.400;7.608;2023-10-09T01:23:56;101808.59;;;12.69;100.00
73267;BME280;61495;53.400;7.608;2023-10-09T01:26:25;101807.75;;;12.68;100.00
73267;BME280;61495;53.400;7.608;2023-10-09T01:28:50;101800.75;;;12.67;100.00
73267;BME280;61495;53.400;7.608;2023-10-09T01:31:16;101779.22;;;12.67;100.00
73267;BME280;61495;53.400;7.608;2023-10-09T01:33:41;101773.00;;;12.67;100.00
73267;BME280;61495;53.400;7.608;2023-10-09T01:36:07;101764.13;;;12.66;100.00
73267;BME280;61495;53.400;7.608;2023-10-09T01:38:34;101765.78;;;12.67;100.00
73267;BME280;61495;53.400;7.608;2023-10-09T01:41:15;101764.72;;;12.68;100.00
73267;BME280;61495;53.400;7.608;2023-10-09T01:44:03;101756.66;;;12.68;100.00
73267;BME280;61495;53.400;7.608;2023-10-09T01:46:48;101749.66;;;12.67;100.00
73267;BME280;61495;53.400;7.608;2023-10-09T01:49:33;101739.09;;;12.66;100.00
73267;BME280;61495;53.400;7.608;2023-10-09T01:52:15;101720.06;;;12.67;100.00
73267;BME280;61495;53.400;7.608;2023-10-09T01:54:51;101718.41;;;12.66;100.00
73267;BME280;61495;53.400;7.608;2023-10-09T01:57:18;101718.63;;;12.65;100.00
73267;BME280;61495;53.400;7.608;2023-10-09T01:59:51;101701.44;;;12.66;100.00
73267;BME280;61495;53.400;7.608;2023-10-09T02:02:20;101693.59;;;12.64;100.00
73267;BME280;61495;53.400;7.608;2023-10-09T02:04:52;101695.22;;;12.65;100.00
73267;BME280;61495;53.400;7.608;2023-10-09T02:07:19;101677.84;;;12.61;100.00
73267;BME280;61495;53.400;7.608;2023-10-09T02:09:48;101679.09;;;12.65;100.00
73267;BME280;61495;53.400;7.608;2023-10-09T02:12:14;101659.66;;;12.63;100.00
73267;BME280;61495;53.400;7.608;2023-10-09T02:14:40;101661.94;;;12.66;100.00
73267;BME280;61495;53.400;7.608;2023-10-09T02:17:07;101652.22;;;12.65;100.00
73267;BME280;61495;53.400;7.608;2023-10-09T02:19:45;101655.94;;;12.64;100.00
73267;BME280;61495;53.400;7.608;2023-10-09T02:22:15;101640.66;;;12.65;100.00
73267;BME280;61495;53.400;7.608;2023-10-09T02:24:43;101630.69;;;12.65;100.00
73267;BME280;61495;53.400;7.608;2023-10-09T02:27:29;101633.38;;;12.65;100.00
73267;BME280;61495;53.400;7.608;2023-10-09T02:30:19;101640.44;;;12.66;100.00
73267;BME280;61495;53.400;7.608;2023-10-09T02:32:53;101634.44;;;12.64;100.00
73267;BME280;61495;53.400;7.608;2023-10-09T02:35:31;101635.28;;;12.65;100.00
73267;BME280;61495;53.400;7.608;2023-10-09T02:38:03;101633.59;;;12.64;100.00
73267;BME280;61495;53.400;7.608;2023-10-09T02:40:32;101619.34;;;12.63;100.00
73267;BME280;61495;53.400;7.608;2023-10-09T02:43:05;101628.00;;;12.65;100.00
73267;BME280;61495;53.400;7.608;2023-10-09T02:45:31;101634.44;;;12.64;100.00
73267;BME280;61495;53.400;7.608;2023-10-09T02:48:01;101635.28;;;12.65;100.00
73267;BME280;61495;53.400;7.608;2023-10-09T02:50:36;101641.47;;;12.65;100.00
73267;BME280;61495;53.400;7.608;2023-10-09T02:53:03;101633.38;;;12.65;100.00
73267;BME280;61495;53.400;7.608;2023-10-09T02:55:34;101623.69;;;12.64;100.00
73267;BME280;61495;53.400;7.608;2023-10-09T02:58:04;101623.28;;;12.67;100.00
73267;BME280;61495;53.400;7.608;2023-10-09T03:00:36;101634.84;;;12.68;100.00
73267;BME280;61495;53.400;7.608;2023-10-09T03:03:03;101624.31;;;12.66;100.00
73267;BME280;61495;53.400;7.608;2023-10-09T03:05:32;101621.63;;;12.66;100.00
73267;BME280;61495;53.400;7.608;2023-10-09T03:07:58;101631.97;;;12.69;100.00
73267;BME280;61495;53.400;7.608;2023-10-09T03:10:24;101637.34;;;12.69;100.00
73267;BME280;61495;53.400;7.608;2023-10-09T03:12:51;101613.16;;;12.69;100.00
73267;BME280;61495;53.400;7.608;2023-10-09T03:15:21;101621.00;;;12.71;100.00
73267;BME280;61495;53.400;7.608;2023-10-09T03:17:47;101603.22;;;12.70;100.00
73267;BME280;61495;53.400;7.608;2023-10-09T03:20:13;101603.00;;;12.71;100.00
73267;BME280;61495;53.400;7.608;2023-10-09T03:22:39;101592.25;;;12.71;100.00
73267;BME280;61495;53.400;7.608;2023-10-09T03:25:06;101599.50;;;12.71;100.00
73267;BME280;61495;53.400;7.608;2023-10-09T03:27:41;101601.38;;;12.70;100.00
73267;BME280;61495;53.400;7.608;2023-10-09T03:30:16;101602.19;;;12.71;100.00
73267;BME280;61495;53.400;7.608;2023-10-09T03:32:47;101598.88;;;12.69;100.00
73267;BME280;61495;53.400;7.608;2023-10-09T03:35:17;101600.31;;;12.71;100.00
73267;BME280;61495;53.400;7.608;2023-10-09T03:37:49;101604.69;;;12.72;100.00
73267;BME280;61495;53.400;7.608;2023-10-09T03:40:14;101603.84;;;12.72;100.00
73267;BME280;61495;53.400;7.608;2023-10-09T03:42:46;101606.34;;;12.73;100.00
73267;BME280;61495;53.400;7.608;2023-10-09T03:45:12;101618.75;;;12.74;100.00
73267;BME280;61495;53.400;7.608;2023-10-09T03:47:44;101608.81;;;12.75;100.00
73267;BME280;61495;53.400;7.608;2023-10-09T03:50:09;101602.59;;;12.74;100.00
73267;BME280;61495;53.400;7.608;2023-10-09T03:52:49;101569.50;;;12.74;100.00
73267;BME280;61495;53.400;7.608;2023-10-09T03:55:15;101590.84;;;12.75;100.00
73267;BME280;61495;53.400;7.608;2023-10-09T03:57:40;101597.22;;;12.74;100.00
73267;BME280;61495;53.400;7.608;2023-10-09T04:00:07;101579.47;;;12.73;100.00
73267;BME280;61495;53.400;7.608;2023-10-09T04:02:38;101584.44;;;12.76;100.00
73267;BME280;61495;53.400;7.608;2023-10-09T04:05:04;101589.81;;;12.76;100.00
73267;BME280;61495;53.400;7.608;2023-10-09T04:07:32;101584.44;;;12.76;100.00
73267;BME280;61495;53.400;7.608;2023-10-09T04:09:58;101588.56;;;12.79;100.00
73267;BME280;61495;53.400;7.608;2023-10-09T04:12:44;101603.88;;;12.78;100.00
73267;BME280;61495;53.400;7.608;2023-10-09T04:15:09;101610.91;;;12.79;100.00
73267;BME280;61495;53.400;7.608;2023-10-09T04:17:40;101614.22;;;12.81;100.00
73267;BME280;61495;53.400;7.608;2023-10-09T04:20:08;101596.41;;;12.80;100.00
73267;BME280;61495;53.400;7.608;2023-10-09T04:22:43;101580.28;;;12.80;100.00
73267;BME280;61495;53.400;7.608;2023-10-09T04:25:25;101583.63;;;12.82;100.00
73267;BME280;61495;53.400;7.608;2023-10-09T04:27:55;101577.41;;;12.82;100.00
73267;BME280;61495;53.400;7.608;2023-10-09T04:30:40;101561.28;;;12.82;100.00
73267;BME280;61495;53.400;7.608;2023-10-09T04:33:08;101545.97;;;12.82;100.00
73267;BME280;61495;53.400;7.608;2023-10-09T04:35:53;101562.09;;;12.82;100.00
73267;BME280;61495;53.400;7.608;2023-10-09T04:38:37;101560.03;;;12.85;100.00
73267;BME280;61495;53.400;7.608;2023-10-09T04:41:06;101568.94;;;12.85;100.00
73267;BME280;61495;53.400;7.608;2023-10-09T04:43:33;101554.66;;;12.85;100.00
73267;BME280;61495;53.400;7.608;2023-10-09T04:45:59;101548.25;;;12.86;100.00
73267;BME280;61495;53.400;7.608;2023-10-09T04:48:32;101539.34;;;12.85;100.00
73267;BME280;61495;53.400;7.608;2023-10-09T04:50:59;101539.13;;;12.87;100.00
73267;BME280;61495;53.400;7.608;2023-10-09T04:53:43;101542.66;;;12.87;100.00
73267;BME280;61495;53.400;7.608;2023-10-09T04:56:27;101521.97;;;12.88;100.00
73267;BME280;61495;53.400;7.608;2023-10-09T04:58:58;101515.56;;;12.89;100.00
73267;BME280;61495;53.400;7.608;2023-10-09T05:01:32;101515.34;;;12.90;100.00
73267;BME280;61495;53.400;7.608;2023-10-09T05:04:11;101506.25;;;12.91;100.00
73267;BME280;61495;53.400;7.608;2023-10-09T05:06:59;101501.72;;;12.92;100.00
73267;BME280;61495;53.400;7.608;2023-10-09T05:09:25;101498.59;;;12.95;100.00
73267;BME280;61495;53.400;7.608;2023-10-09T05:11:51;101496.94;;;12.94;100.00
73267;BME280;61495;53.400;7.608;2023-10-09T05:14:17;101492.19;;;12.96;100.00
73267;BME280;61495;53.400;7.608;2023-10-09T05:16:42;101490.09;;;12.98;100.00
73267;BME280;61495;53.400;7.608;2023-10-09T05:19:34;101475.63;;;12.99;100.00
73267;BME280;61495;53.400;7.608;2023-10-09T05:22:20;101475.22;;;13.02;100.00
73267;BME280;61495;53.400;7.608;2023-10-09T05:24:58;101477.91;;;13.02;100.00
73267;BME280;61495;53.400;7.608;2023-10-09T05:27:26;101498.00;;;13.06;100.00
73267;BME280;61495;53.400;7.608;2023-10-09T05:30:11;101497.34;;;13.04;100.00
73267;BME280;61495;53.400;7.608;2023-10-09T05:32:55;101505.00;;;13.07;100.00
73267;BME280;61495;53.400;7.608;2023-10-09T05:35:24;101505.00;;;13.07;100.00
73267;BME280;61495;53.400;7.608;2023-10-09T05:38:08;101507.13;;;13.11;100.00
73267;BME280;61495;53.400;7.608;2023-10-09T05:40:51;101504.22;;;13.13;100.00
73267;BME280;61495;53.400;7.608;2023-10-09T05:43:29;101513.75;;;13.15;100.00
73267;BME280;61495;53.400;7.608;2023-10-09T05:46:13;101513.53;;;13.17;100.00
73267;BME280;61495;53.400;7.608;2023-10-09T05:48:40;101507.94;;;13.18;100.00
73267;BME280;61495;53.400;7.608;2023-10-09T05:51:06;101512.09;;;13.21;100.00
73267;BME280;61495;53.400;7.608;2023-10-09T05:53:34;101504.63;;;13.23;100.00
73267;BME280;61495;53.400;7.608;2023-10-09T05:56:12;101513.53;;;13.23;100.00
73267;BME280;61495;53.400;7.608;2023-10-09T05:58:56;101524.72;;;13.27;100.00
73267;BME280;61495;53.400;7.608;2023-10-09T06:01:40;101523.66;;;13.28;100.00
73267;BME280;61495;53.400;7.608;2023-10-09T06:04:27;101532.38;;;13.30;100.00
73267;BME280;61495;53.400;7.608;2023-10-09T06:07:14;101538.56;;;13.30;100.00
73267;BME280;61495;53.400;7.608;2023-10-09T06:09:47;101541.06;;;13.32;100.00
73267;BME280;61495;53.400;7.608;2023-10-09T06:12:20;101545.19;;;13.34;100.00
73267;BME280;61495;53.400;7.608;2023-10-09T06:14:57;101552.69;;;13.39;100.00
73267;BME280;61495;53.400;7.608;2023-10-09T06:17:23;101545.22;;;13.41;100.00
73267;BME280;61495;53.400;7.608;2023-10-09T06:19:50;101545.63;;;13.45;100.00
73267;BME280;61495;53.400;7.608;2023-10-09T06:22:23;101542.72;;;13.46;100.00
73267;BME280;61495;53.400;7.608;2023-10-09T06:25:01;101537.94;;;13.48;100.00
73267;BME280;61495;53.400;7.608;2023-10-09T06:27:34;101539.19;;;13.52;100.00
73267;BME280;61495;53.400;7.608;2023-10-09T06:30:00;101544.97;;;13.56;100.00
73267;BME280;61495;53.400;7.608;2023-10-09T06:32:44;101550.78;;;13.59;100.00
73267;BME280;61495;53.400;7.608;2023-10-09T06:35:21;101549.31;;;13.63;100.00
73267;BME280;61495;53.400;7.608;2023-10-09T06:37:50;101559.66;;;13.66;100.00
73267;BME280;61495;53.400;7.608;2023-10-09T06:43:15;101560.50;;;13.73;100.00
73267;BME280;61495;53.400;7.608;2023-10-09T06:45:50;101560.91;;;13.77;100.00
73267;BME280;61495;53.400;7.608;2023-10-09T06:48:34;101561.31;;;13.80;100.00
73267;BME280;61495;53.400;7.608;2023-10-09T06:51:08;101554.69;;;13.83;100.00
73267;BME280;61495;53.400;7.608;2023-10-09T06:53:56;101544.31;;;13.86;100.00
73267;BME280;61495;53.400;7.608;2023-10-09T06:56:23;101554.69;;;13.89;100.00
73267;BME280;61495;53.400;7.608;2023-10-09T06:59:09;101548.88;;;13.93;100.00
73267;BME280;61495;53.400;7.608;2023-10-09T07:01:50;101551.09;;;13.96;100.00
73267;BME280;61495;53.400;7.608;2023-10-09T07:04:48;101555.03;;;14.00;100.00
73267;BME280;61495;53.400;7.608;2023-10-09T07:07:13;101555.47;;;14.03;100.00
73267;BME280;61495;53.400;7.608;2023-10-09T07:09:41;101557.13;;;14.04;100.00
73267;BME280;61495;53.400;7.608;2023-10-09T07:12:26;101552.75;;;14.10;100.00
73267;BME280;61495;53.400;7.608;2023-10-09T07:14:52;101551.69;;;14.11;100.00
73267;BME280;61495;53.400;7.608;2023-10-09T07:17:21;101543.19;;;14.14;100.00
73267;BME280;61495;53.400;7.608;2023-10-09T07:20:10;101547.72;;;14.20;100.00
73267;BME280;61495;53.400;7.608;2023-10-09T07:22:39;101549.16;;;14.22;100.00
73267;BME280;61495;53.400;7.608;2023-10-09T07:25:05;101544.16;;;14.26;100.00
73267;BME280;61495;53.400;7.608;2023-10-09T07:27:40;101545.41;;;14.30;100.00
73267;BME280;61495;53.400;7.608;2023-10-09T07:30:13;101542.47;;;14.31;100.00
73267;BME280;61495;53.400;7.608;2023-10-09T07:32:59;101546.25;;;14.37;100.00
73267;BME280;61495;53.400;7.608;2023-10-09T07:35:32;101553.06;;;14.46;100.00
73267;BME280;61495;53.400;7.608;2023-10-09T07:38:15;101553.66;;;14.48;100.00
73267;BME280;61495;53.400;7.608;2023-10-09T07:40:45;101545.34;;;14.50;100.00
73267;BME280;61495;53.400;7.608;2023-10-09T07:43:31;101553.41;;;14.56;100.00
73267;BME280;61495;53.400;7.608;2023-10-09T07:46:04;101555.66;;;14.59;100.00
73267;BME280;61495;53.400;7.608;2023-10-09T07:48:31;101550.44;;;14.64;100.00
73267;BME280;61495;53.400;7.608;2023-10-09T07:51:14;101551.06;;;14.66;100.00
73267;BME280;61495;53.400;7.608;2023-10-09T07:53:40;101556.03;;;14.69;100.00
73267;BME280;61495;53.400;7.608;2023-10-09T07:56:09;101564.31;;;14.74;100.00
73267;BME280;61495;53.400;7.608;2023-10-09T07:58:39;101564.69;;;14.78;100.00
73267;BME280;61495;53.400;7.608;2023-10-09T08:01:14;101557.00;;;14.81;100.00
73267;BME280;61495;53.400;7.608;2023-10-09T08:04:02;101565.47;;;14.85;100.00
73267;BME280;61495;53.400;7.608;2023-10-09T08:06:37;101567.97;;;14.86;100.00
73267;BME280;61495;53.400;7.608;2023-10-09T08:09:09;101575.41;;;14.91;100.00
73267;BME280;61495;53.400;7.608;2023-10-09T08:11:37;101559.84;;;14.93;100.00
73267;BME280;61495;53.400;7.608;2023-10-09T08:14:08;101566.66;;;14.95;100.00
73267;BME280;61495;53.400;7.608;2023-10-09T08:16:52;101565.16;;;14.99;100.00
73267;BME280;61495;53.400;7.608;2023-10-09T08:19:34;101573.06;;;15.01;100.00
73267;BME280;61495;53.400;7.608;2023-10-09T08:22:00;101581.56;;;15.05;100.00
73267;BME280;61495;53.400;7.608;2023-10-09T08:24:44;101575.72;;;15.08;100.00
73267;BME280;61495;53.400;7.608;2023-10-09T08:27:17;101571.53;;;15.12;100.00
73267;BME280;61495;53.400;7.608;2023-10-09T08:29:56;101574.84;;;15.14;100.00
73267;BME280;61495;53.400;7.608;2023-10-09T08:32:56;101578.16;;;15.16;100.00
73267;BME280;61495;53.400;7.608;2023-10-09T08:35:30;101583.13;;;15.19;100.00
73267;BME280;61495;53.400;7.608;2023-10-09T08:38:00;101586.41;;;15.21;100.00
73267;BME280;61495;53.400;7.608;2023-10-09T08:40:34;101581.41;;;15.24;100.00
73267;BME280;61495;53.400;7.608;2023-10-09T08:43:21;101580.13;;;15.27;100.00
73267;BME280;61495;53.400;7.608;2023-10-09T08:45:53;101576.41;;;15.28;100.00
73267;BME280;61495;53.400;7.608;2023-10-09T08:48:20;101583.03;;;15.32;100.00
73267;BME280;61495;53.400;7.608;2023-10-09T08:50:48;101581.97;;;15.33;100.00
73267;BME280;61495;53.400;7.608;2023-10-09T08:53:16;101579.88;;;15.35;100.00
73267;BME280;61495;53.400;7.608;2023-10-09T08:55:43;101572.16;;;15.38;100.00
73267;BME280;61495;53.400;7.608;2023-10-09T08:58:09;101571.34;;;15.38;100.00
73267;BME280;61495;53.400;7.608;2023-10-09T09:00:52;101574.19;;;15.43;100.00
73267;BME280;61495;53.400;7.608;2023-10-09T09:03:19;101573.75;;;15.46;100.00
73267;BME280;61495;53.400;7.608;2023-10-09T09:05:57;101577.09;;;15.48;100.00
73267;BME280;61495;53.400;7.608;2023-10-09T09:08:26;101574.19;;;15.49;100.00
73267;BME280;61495;53.400;7.608;2023-10-09T09:11:07;101571.03;;;15.52;100.00
73267;BME280;61495;53.400;7.608;2023-10-09T09:16:30;101557.91;;;15.56;100.00
73267;BME280;61495;53.400;7.608;2023-10-09T09:19:04;101565.56;;;15.59;100.00
73267;BME280;61495;53.400;7.608;2023-10-09T09:21:32;101560.78;;;15.61;100.00
73267;BME280;61495;53.400;7.608;2023-10-09T09:24:19;101544.97;;;15.65;100.00
73267;BME280;61495;53.400;7.608;2023-10-09T09:26:52;101573.59;;;15.66;100.00
73267;BME280;61495;53.400;7.608;2023-10-09T09:32:01;101575.41;;;15.72;100.00
73267;BME280;61495;53.400;7.608;2023-10-09T09:34:49;101580.63;;;15.73;100.00
73267;BME280;61495;53.400;7.608;2023-10-09T09:37:22;101598.25;;;15.76;100.00
73267;BME280;61495;53.400;7.608;2023-10-09T09:39:57;101583.91;;;15.75;100.00
73267;BME280;61495;53.400;7.608;2023-10-09T09:42:24;101584.50;;;15.77;100.00
73267;BME280;61495;53.400;7.608;2023-10-09T09:44:51;101592.41;;;15.79;100.00
73267;BME280;61495;53.400;7.608;2023-10-09T09:47:17;101590.53;;;15.79;100.00
73267;BME280;61495;53.400;7.608;2023-10-09T09:49:56;101606.50;;;15.81;100.00
73267;BME280;61495;53.400;7.608;2023-10-09T09:52:31;101606.31;;;15.82;100.00
73267;BME280;61495;53.400;7.608;2023-10-09T09:55:05;101597.13;;;15.83;100.00
73267;BME280;61495;53.400;7.608;2023-10-09T09:57:32;101598.78;;;15.84;100.00
73267;BME280;61495;53.400;7.608;2023-10-09T10:00:04;101608.56;;;15.85;100.00
73267;BME280;61495;53.400;7.608;2023-10-09T10:02:36;101602.09;;;15.86;100.00
73267;BME280;61495;53.400;7.608;2023-10-09T10:05:06;101599.19;;;15.88;100.00
73267;BME280;61495;53.400;7.608;2023-10-09T10:07:36;101601.44;;;15.91;100.00
73267;BME280;61495;53.400;7.608;2023-10-09T10:10:40;101603.06;;;15.92;100.00
73267;BME280;61495;53.400;7.608;2023-10-09T10:16:07;101613.69;;;15.93;100.00
73267;BME280;61495;53.400;7.608;2023-10-09T10:19:04;101607.81;;;15.96;100.00
73267;BME280;61495;53.400;7.608;2023-10-09T10:21:47;101622.16;;;15.97;100.00
73267;BME280;61495;53.400;7.608;2023-10-09T10:27:17;101630.66;;;16.00;100.00
73267;BME280;61495;53.400;7.608;2023-10-09T10:32:57;101645.59;;;16.03;100.00
73267;BME280;61495;53.400;7.608;2023-10-09T10:35:24;101645.38;;;16.04;100.00
73267;BME280;61495;53.400;7.608;2023-10-09T10:38:30;101645.75;;;16.08;100.00
73267;BME280;61495;53.400;7.608;2023-10-09T10:43:37;101642.16;;;16.14;100.00
73267;BME280;61495;53.400;7.608;2023-10-09T10:46:19;101634.25;;;16.12;100.00
73267;BME280;61495;53.400;7.608;2023-10-09T10:49:07;101640.88;;;16.17;100.00
73267;BME280;61495;53.400;7.608;2023-10-09T10:51:40;101643.38;;;16.18;100.00
73267;BME280;61495;53.400;7.608;2023-10-09T10:54:09;101641.28;;;16.20;100.00
73267;BME280;61495;53.400;7.608;2023-10-09T10:56:53;101645.41;;;16.23;100.00
73267;BME280;61495;53.400;7.608;2023-10-09T10:59:22;101641.22;;;16.27;100.00
73267;BME280;61495;53.400;7.608;2023-10-09T11:01:49;101651.94;;;16.33;100.00
73267;BME280;61495;53.400;7.608;2023-10-09T11:04:45;101650.22;;;16.39;100.00
73267;BME280;61495;53.400;7.608;2023-10-09T11:07:21;101654.75;;;16.45;100.00
73267;BME280;61495;53.400;7.608;2023-10-09T11:09:54;101650.50;;;16.49;100.00
73267;BME280;61495;53.400;7.608;2023-10-09T11:15:30;101649.47;;;16.50;100.00
73267;BME280;61495;53.400;7.608;2023-10-09T11:18:07;101645.28;;;16.54;100.00
73267;BME280;61495;53.400;7.608;2023-10-09T11:20:37;101643.59;;;16.53;100.00
73267;BME280;61495;53.400;7.608;2023-10-09T11:23:04;101644.22;;;16.55;100.00
73267;BME280;61495;53.400;7.608;2023-10-09T11:25:42;101654.44;;;16.53;100.00
73267;BME280;61495;53.400;7.608;2023-10-09T11:28:19;101660.47;;;16.55;100.00
73267;BME280;61495;53.400;7.608;2023-10-09T11:31:15;101660.47;;;16.55;100.00
73267;BME280;61495;53.400;7.608;2023-10-09T11:33:44;101652.13;;;16.56;100.00
73267;BME280;61495;53.400;7.608;2023-10-09T11:36:09;101652.47;;;16.60;100.00
73267;BME280;61495;53.400;7.608;2023-10-09T11:38:36;101648.53;;;16.62;100.00
73267;BME280;61495;53.400;7.608;2023-10-09T11:41:14;101647.84;;;16.67;100.00
73267;BME280;61495;53.400;7.608;2023-10-09T11:43:50;101663.03;;;16.68;100.00
73267;BME280;61495;53.400;7.608;2023-10-09T11:46:17;101652.78;;;16.70;100.00
73267;BME280;61495;53.400;7.608;2023-10-09T11:49:05;101645.72;;;16.69;100.00
73267;BME280;61495;53.400;7.608;2023-10-09T11:51:46;101653.38;;;16.72;100.00
73267;BME280;61495;53.400;7.608;2023-10-09T11:54:30;101639.38;;;16.75;100.00
73267;BME280;61495;53.400;7.608;2023-10-09T11:56:57;101636.22;;;16.78;100.00
73267;BME280;61495;53.400;7.608;2023-10-09T11:59:26;101653.69;;;16.82;100.00
73267;BME280;61495;53.400;7.608;2023-10-09T12:01:52;101655.34;;;16.83;100.00
73267;BME280;61495;53.400;7.608;2023-10-09T12:04:18;101666.75;;;16.85;100.00
73267;BME280;61495;53.400;7.608;2023-10-09T12:06:44;101650.97;;;16.82;100.00
73267;BME280;61495;53.400;7.608;2023-10-09T12:09:10;101656.75;;;16.86;100.00
73267;BME280;61495;53.400;7.608;2023-10-09T12:11:48;101666.75;;;16.85;100.00
73267;BME280;61495;53.400;7.608;2023-10-09T12:14:18;101652.41;;;16.85;100.00
73267;BME280;61495;53.400;7.608;2023-10-09T12:16:49;101654.28;;;16.84;100.00
73267;BME280;61495;53.400;7.608;2023-10-09T12:19:15;101654.97;;;16.80;100.00
73267;BME280;61495;53.400;7.608;2023-10-09T12:21:40;101652.63;;;16.83;100.00
73267;BME280;61495;53.400;7.608;2023-10-09T12:24:08;101652.84;;;16.82;100.00
73267;BME280;61495;53.400;7.608;2023-10-09T12:26:37;101664.97;;;16.79;100.00
73267;BME280;61495;53.400;7.608;2023-10-09T12:29:04;101671.41;;;16.78;100.00
73267;BME280;61495;53.400;7.608;2023-10-09T12:31:36;101661.03;;;16.75;100.00
73267;BME280;61495;53.400;7.608;2023-10-09T12:34:02;101658.34;;;16.75;100.00
73267;BME280;61495;53.400;7.608;2023-10-09T12:36:28;101660.00;;;16.76;100.00
73267;BME280;61495;53.400;7.608;2023-10-09T12:38:53;101659.41;;;16.74;100.00
73267;BME280;61495;53.400;7.608;2023-10-09T12:41:19;101655.03;;;16.73;100.00
73267;BME280;61495;53.400;7.608;2023-10-09T12:43:50;101652.56;;;16.72;100.00
73267;BME280;61495;53.400;7.608;2023-10-09T12:46:17;101663.63;;;16.70;100.00
73267;BME280;61495;53.400;7.608;2023-10-09T12:48:43;101661.94;;;16.69;100.00
73267;BME280;61495;53.400;7.608;2023-10-09T12:51:12;101658.19;;;16.70;100.00
73267;BME280;61495;53.400;7.608;2023-10-09T12:53:42;101661.16;;;16.69;100.00
73267;BME280;61495;53.400;7.608;2023-10-09T12:56:07;101664.66;;;16.69;100.00
73267;BME280;61495;53.400;7.608;2023-10-09T12:58:34;101659.03;;;16.71;100.00
73267;BME280;61495;53.400;7.608;2023-10-09T13:01:03;101654.06;;;16.67;100.00
73267;BME280;61495;53.400;7.608;2023-10-09T13:03:35;101660.31;;;16.68;100.00
73267;BME280;61495;53.400;7.608;2023-10-09T13:06:04;101664.06;;;16.67;100.00
73267;BME280;61495;53.400;7.608;2023-10-09T13:08:32;101657.44;;;16.63;100.00
73267;BME280;61495;53.400;7.608;2023-10-09T13:11:03;101663.94;;;16.62;100.00
73267;BME280;61495;53.400;7.608;2023-10-09T13:13:36;101664.97;;;16.61;100.00
73267;BME280;61495;53.400;7.608;2023-10-09T13:16:14;101655.44;;;16.58;100.00
73267;BME280;61495;53.400;7.608;2023-10-09T13:18:49;101669.09;;;16.63;100.00
73267;BME280;61495;53.400;7.608;2023-10-09T13:21:21;101661.81;;;16.64;100.00
73267;BME280;61495;53.400;7.608;2023-10-09T13:23:48;101664.53;;;16.64;100.00
73267;BME280;61495;53.400;7.608;2023-10-09T13:26:18;101667.81;;;16.66;100.00
73267;BME280;61495;53.400;7.608;2023-10-09T13:28:51;101673.47;;;16.64;100.00
73267;BME280;61495;53.400;7.608;2023-10-09T13:31:19;101676.56;;;16.68;100.00
73267;BME280;61495;53.400;7.608;2023-10-09T13:33:47;101669.03;;;16.70;100.00
73267;BME280;61495;53.400;7.608;2023-10-09T13:36:13;101678.81;;;16.71;100.00